Time;durP1;ratioP1;P1;durP2;ratioP2;P2;SDS_P1;SDS_P2;PMS_P1;PMS_P2;Temp;Humidity;BMP_temperature;BMP_pressure;BME280_temperature;BME280_humidity;BME280_pressure;Samples;Min_cycle;Max_cycle;Signal;HPM_P1;HPM_P2
2023/09/06 00:00:42;;;;;;;4.15;2.13;;;;;;;;;;4993224;28;20430;-64
2023/09/06 00:03:09;;;;;;;3.97;2.00;;;;;;;;;;4989830;28;20418;-64
2023/09/06 00:05:41;;;;;;;4.45;1.90;;;;;;;;;;4994129;28;20424;-64
2023/09/06 00:08:09;;;;;;;2.83;1.95;;;;;;;;;;4987090;28;20449;-64
2023/09/06 00:10:39;;;;;;;4.50;2.17;;;;;;;;;;4993747;28;20470;-64
2023/09/06 00:13:07;;;;;;;2.65;2.00;;;;;;;;;;4989524;28;20450;-64
2023/09/06 00:15:34;;;;;;;2.83;2.03;;;;;;;;;;4989640;28;20448;-64
2023/09/06 00:18:03;;;;;;;3.40;1.92;;;;;;;;;;4984343;28;20434;-64
2023/09/06 00:20:30;;;;;;;3.63;2.00;;;;;;;;;;4997351;28;20820;-64
2023/09/06 00:22:57;;;;;;;3.60;1.92;;;;;;;;;;4989167;28;20480;-64
2023/09/06 00:25:25;;;;;;;2.97;2.05;;;;;;;;;;4995258;28;20422;-64
2023/09/06 00:27:54;;;;;;;4.13;2.22;;;;;;;;;;4989822;28;20480;-64
2023/09/06 00:30:21;;;;;;;3.50;2.15;;;;;;;;;;4993652;28;20468;-64
2023/09/06 00:32:52;;;;;;;3.28;2.10;;;;;;;;;;4989999;28;20415;-64
2023/09/06 00:35:19;;;;;;;2.97;1.83;;;;;;;;;;4992661;28;20477;-64
2023/09/06 00:37:46;;;;;;;5.72;2.33;;;;;;;;;;4989540;28;20496;-64
2023/09/06 00:40:18;;;;;;;3.35;1.90;;;;;;;;;;4992427;28;20472;-64
2023/09/06 00:42:47;;;;;;;5.17;1.90;;;;;;;;;;4989712;28;20408;-64
2023/09/06 00:45:18;;;;;;;3.78;1.90;;;;;;;;;;4985066;28;20855;-64
2023/09/06 00:47:45;;;;;;;3.60;2.07;;;;;;;;;;4989921;28;20408;-64
2023/09/06 00:50:14;;;;;;;4.45;1.92;;;;;;;;;;4991193;28;20879;-64
2023/09/06 00:52:41;;;;;;;3.70;1.88;;;;;;;;;;4990330;28;20425;-63
2023/09/06 00:55:10;;;;;;;3.70;2.20;;;;;;;;;;4993368;28;20923;-64
2023/09/06 00:57:37;;;;;;;3.97;2.28;;;;;;;;;;4988720;28;20440;-64
2023/09/06 01:00:06;;;;;;;2.35;2.00;;;;;;;;;;4993769;28;20497;-64
2023/09/06 01:02:35;;;;;;;3.13;2.05;;;;;;;;;;4986835;28;20434;-64
2023/09/06 01:05:02;;;;;;;3.13;1.90;;;;;;;;;;4993423;28;20488;-64
2023/09/06 01:07:30;;;;;;;4.20;1.80;;;;;;;;;;4985347;28;20475;-64
2023/09/06 01:09:57;;;;;;;6.10;2.20;;;;;;;;;;4993921;28;20473;-63
2023/09/06 01:12:24;;;;;;;4.50;1.83;;;;;;;;;;4989910;28;20824;-63
2023/09/06 01:14:51;;;;;;;3.45;2.15;;;;;;;;;;4992217;28;20418;-63
2023/09/06 01:17:18;;;;;;;3.03;2.00;;;;;;;;;;4985105;28;20465;-64
2023/09/06 01:19:48;;;;;;;4.53;2.30;;;;;;;;;;5012588;23;20789;-66
2023/09/06 01:22:21;;;;;;;3.45;1.85;;;;;;;;;;5015656;28;20833;-66
2023/09/06 01:24:50;;;;;;;4.13;2.00;;;;;;;;;;5014973;28;20471;-66
2023/09/06 01:27:18;;;;;;;3.70;2.00;;;;;;;;;;5005478;28;20417;-65
2023/09/06 01:29:45;;;;;;;4.88;2.35;;;;;;;;;;5003366;28;20646;-64
2023/09/06 01:32:12;;;;;;;3.83;2.10;;;;;;;;;;4997467;28;20836;-65
2023/09/06 01:34:39;;;;;;;3.45;2.33;;;;;;;;;;4997916;28;20431;-65
2023/09/06 01:37:06;;;;;;;3.85;2.38;;;;;;;;;;4999069;28;20422;-63
2023/09/06 01:39:33;;;;;;;3.28;2.25;;;;;;;;;;4995283;28;20410;-64
2023/09/06 01:42:01;;;;;;;4.25;2.28;;;;;;;;;;4997526;28;20463;-64
2023/09/06 01:44:31;;;;;;;2.57;2.10;;;;;;;;;;4994588;28;20419;-66
2023/09/06 01:46:58;;;;;;;5.30;2.40;;;;;;;;;;4991441;28;20441;-63
2023/09/06 01:49:25;;;;;;;3.00;2.30;;;;;;;;;;4994479;28;20485;-63
2023/09/06 01:51:55;;;;;;;3.78;2.40;;;;;;;;;;4997089;28;20756;-66
2023/09/06 01:54:22;;;;;;;2.65;2.00;;;;;;;;;;4993878;28;20418;-64
2023/09/06 01:56:49;;;;;;;3.35;2.30;;;;;;;;;;4996310;28;20523;-63
2023/09/06 01:59:18;;;;;;;2.65;2.10;;;;;;;;;;4993399;28;20434;-63
2023/09/06 02:01:45;;;;;;;3.72;2.30;;;;;;;;;;4999834;28;20496;-63
2023/09/06 02:04:12;;;;;;;2.90;2.10;;;;;;;;;;4993210;28;20837;-62
2023/09/06 02:06:39;;;;;;;3.03;2.10;;;;;;;;;;4998953;28;20453;-63
2023/09/06 02:09:06;;;;;;;3.88;2.47;;;;;;;;;;4992702;28;20997;-63
2023/09/06 02:11:34;;;;;;;4.97;2.45;;;;;;;;;;4998434;28;20889;-63
2023/09/06 02:14:01;;;;;;;2.88;2.30;;;;;;;;;;4988836;28;20425;-64
2023/09/06 02:16:30;;;;;;;5.00;2.30;;;;;;;;;;4990602;28;20919;-63
2023/09/06 02:18:57;;;;;;;2.30;2.10;;;;;;;;;;4991860;28;20574;-64
2023/09/06 02:21:25;;;;;;;2.47;2.03;;;;;;;;;;4996417;28;20477;-65
2023/09/06 02:23:52;;;;;;;5.20;2.55;;;;;;;;;;4991421;28;20885;-64
2023/09/06 02:26:19;;;;;;;3.78;2.47;;;;;;;;;;4995889;28;20442;-64
2023/09/06 02:28:46;;;;;;;4.70;2.42;;;;;;;;;;4991563;28;20426;-64
2023/09/06 02:31:13;;;;;;;2.70;2.25;;;;;;;;;;4993033;28;20836;-65
2023/09/06 02:33:43;;;;;;;3.13;2.40;;;;;;;;;;4995252;28;20518;-65
2023/09/06 02:36:10;;;;;;;4.28;2.40;;;;;;;;;;4995901;28;20418;-64
2023/09/06 02:38:37;;;;;;;3.90;2.38;;;;;;;;;;4994406;28;20847;-65
2023/09/06 02:41:04;;;;;;;3.13;2.47;;;;;;;;;;4996355;28;20422;-64
2023/09/06 02:43:31;;;;;;;2.67;2.47;;;;;;;;;;4993146;28;20410;-64
2023/09/06 02:46:03;;;;;;;2.75;2.50;;;;;;;;;;4991059;28;20418;-64
2023/09/06 02:48:33;;;;;;;5.43;2.28;;;;;;;;;;4989590;28;20426;-64
2023/09/06 02:51:01;;;;;;;3.58;2.47;;;;;;;;;;4997940;28;20484;-65
2023/09/06 02:53:31;;;;;;;4.00;2.85;;;;;;;;;;4992030;28;20832;-64
2023/09/06 02:55:59;;;;;;;3.40;2.40;;;;;;;;;;4995649;28;20425;-65
2023/09/06 02:58:26;;;;;;;3.53;2.60;;;;;;;;;;4991872;28;20836;-65
2023/09/06 03:00:57;;;;;;;5.47;2.30;;;;;;;;;;4996691;28;20537;-65
2023/09/06 03:03:26;;;;;;;2.60;2.37;;;;;;;;;;4990722;28;20459;-65
2023/09/06 03:05:57;;;;;;;4.93;2.50;;;;;;;;;;4995402;28;20507;-65
2023/09/06 03:08:27;;;;;;;3.95;2.67;;;;;;;;;;4994154;28;20461;-66
2023/09/06 03:10:54;;;;;;;3.17;2.45;;;;;;;;;;4993966;28;20480;-65
2023/09/06 03:13:21;;;;;;;2.72;2.50;;;;;;;;;;4994726;28;20426;-65
2023/09/06 03:15:51;;;;;;;3.53;2.35;;;;;;;;;;4990243;28;20414;-66
2023/09/06 03:18:18;;;;;;;4.43;2.40;;;;;;;;;;4993341;28;20792;-65
2023/09/06 03:20:46;;;;;;;3.27;2.40;;;;;;;;;;4994155;28;20719;-65
2023/09/06 03:23:18;;;;;;;3.30;2.80;;;;;;;;;;4996696;28;20418;-65
2023/09/06 03:25:47;;;;;;;3.60;2.67;;;;;;;;;;4994014;28;20466;-65
2023/09/06 03:28:14;;;;;;;4.80;3.30;;;;;;;;;;4996299;28;20421;-65
2023/09/06 03:30:42;;;;;;;4.10;2.97;;;;;;;;;;4994055;28;20822;-65
2023/09/06 03:33:09;;;;;;;5.10;2.78;;;;;;;;;;4996185;28;20835;-65
2023/09/06 03:35:36;;;;;;;4.53;3.03;;;;;;;;;;4995089;28;20830;-65
2023/09/06 03:38:08;;;;;;;4.03;2.78;;;;;;;;;;4999667;28;20832;-64
2023/09/06 03:40:38;;;;;;;3.38;2.75;;;;;;;;;;4996618;28;20436;-65
2023/09/06 03:43:14;;;;;;;3.08;2.75;;;;;;;;;;4993886;28;20440;-65
2023/09/06 03:45:43;;;;;;;5.20;2.90;;;;;;;;;;4996817;28;20426;-65
2023/09/06 03:48:11;;;;;;;3.03;2.58;;;;;;;;;;4997353;28;20520;-65
2023/09/06 03:50:38;;;;;;;2.80;2.30;;;;;;;;;;4998762;28;20494;-65
2023/09/06 03:53:05;;;;;;;2.78;2.33;;;;;;;;;;4993924;28;20426;-65
2023/09/06 03:55:34;;;;;;;5.28;2.70;;;;;;;;;;4995824;28;20979;-65
2023/09/06 03:58:03;;;;;;;3.88;2.90;;;;;;;;;;4997354;28;20418;-65
2023/09/06 04:00:31;;;;;;;4.07;3.25;;;;;;;;;;4991777;28;20493;-66
2023/09/06 04:02:59;;;;;;;5.90;3.20;;;;;;;;;;4996065;28;20426;-65
2023/09/06 04:05:26;;;;;;;4.93;3.45;;;;;;;;;;4994765;28;20424;-65
2023/09/06 04:07:56;;;;;;;4.80;3.30;;;;;;;;;;4996843;28;20418;-65
2023/09/06 04:10:23;;;;;;;5.00;3.10;;;;;;;;;;4999824;28;20422;-65
2023/09/06 04:12:53;;;;;;;5.40;3.03;;;;;;;;;;4994180;28;20436;-65
2023/09/06 04:15:21;;;;;;;4.28;2.80;;;;;;;;;;4993439;28;20885;-65
2023/09/06 04:17:50;;;;;;;4.53;3.35;;;;;;;;;;4994640;28;20416;-65
2023/09/06 04:20:19;;;;;;;5.05;3.50;;;;;;;;;;4997060;28;20789;-65
2023/09/06 04:22:47;;;;;;;5.50;3.65;;;;;;;;;;4999089;28;20425;-65
2023/09/06 04:25:16;;;;;;;5.95;3.33;;;;;;;;;;4996774;28;20915;-64
2023/09/06 04:27:44;;;;;;;4.90;3.58;;;;;;;;;;4997307;28;20472;-65
2023/09/06 04:30:11;;;;;;;6.90;3.60;;;;;;;;;;4996446;28;20492;-65
2023/09/06 04:32:38;;;;;;;5.30;3.40;;;;;;;;;;4997516;28;20420;-65
2023/09/06 04:35:08;;;;;;;4.40;3.40;;;;;;;;;;4999318;28;20421;-65
2023/09/06 04:37:38;;;;;;;6.50;3.70;;;;;;;;;;4994666;28;20422;-65
2023/09/06 04:40:08;;;;;;;5.75;3.80;;;;;;;;;;4996746;28;20461;-65
2023/09/06 04:42:35;;;;;;;5.90;3.53;;;;;;;;;;4993386;28;20418;-65
2023/09/06 04:45:03;;;;;;;5.57;3.42;;;;;;;;;;4993485;28;20430;-66
2023/09/06 04:47:30;;;;;;;5.00;3.57;;;;;;;;;;4997530;28;20498;-66
2023/09/06 04:49:58;;;;;;;7.70;4.07;;;;;;;;;;4993810;28;20422;-66
2023/09/06 04:52:27;;;;;;;7.30;3.90;;;;;;;;;;4992939;28;20983;-66
2023/09/06 04:54:55;;;;;;;6.80;4.00;;;;;;;;;;4990857;28;20506;-66
2023/09/06 04:57:22;;;;;;;8.65;4.22;;;;;;;;;;4994692;28;20504;-66
2023/09/06 04:59:49;;;;;;;6.40;4.20;;;;;;;;;;4996595;28;20956;-66
2023/09/06 05:02:16;;;;;;;6.75;4.55;;;;;;;;;;4994912;28;20422;-66
2023/09/06 05:04:43;;;;;;;5.75;4.40;;;;;;;;;;4993643;28;20419;-65
2023/09/06 05:07:10;;;;;;;6.00;4.40;;;;;;;;;;4994571;28;20449;-65
2023/09/06 05:09:39;;;;;;;8.95;4.38;;;;;;;;;;4993796;28;20445;-65
2023/09/06 05:12:06;;;;;;;5.93;4.43;;;;;;;;;;4989533;28;20510;-65
2023/09/06 05:14:33;;;;;;;5.80;4.10;;;;;;;;;;4998463;28;20606;-64
2023/09/06 05:17:00;;;;;;;6.43;4.25;;;;;;;;;;4997715;28;20414;-64
2023/09/06 05:19:28;;;;;;;7.13;3.90;;;;;;;;;;4992071;28;20924;-65
2023/09/06 05:21:55;;;;;;;8.85;4.53;;;;;;;;;;4992150;28;20509;-64
2023/09/06 05:24:22;;;;;;;5.75;4.28;;;;;;;;;;4995555;28;20422;-64
2023/09/06 05:26:50;;;;;;;6.00;3.88;;;;;;;;;;4993382;28;20912;-64
2023/09/06 05:29:18;;;;;;;5.95;4.00;;;;;;;;;;4994559;28;20428;-64
2023/09/06 05:31:45;;;;;;;5.88;3.65;;;;;;;;;;4994372;28;20425;-64
2023/09/06 05:34:12;;;;;;;7.20;4.03;;;;;;;;;;4996579;28;20505;-64
2023/09/06 05:36:39;;;;;;;5.68;3.47;;;;;;;;;;4993841;28;20469;-65
2023/09/06 05:39:07;;;;;;;4.70;3.58;;;;;;;;;;4995929;28;20480;-64
2023/09/06 05:41:34;;;;;;;7.60;3.72;;;;;;;;;;4989991;28;20493;-64
2023/09/06 05:44:02;;;;;;;5.53;3.28;;;;;;;;;;4996303;28;20429;-65
2023/09/06 05:46:29;;;;;;;6.65;3.40;;;;;;;;;;4991892;28;20419;-65
2023/09/06 05:48:57;;;;;;;5.35;3.70;;;;;;;;;;4995576;28;20503;-64
2023/09/06 05:51:24;;;;;;;5.18;3.60;;;;;;;;;;4996264;28;20530;-64
2023/09/06 05:53:51;;;;;;;6.25;3.50;;;;;;;;;;4997852;28;20420;-64
2023/09/06 05:56:18;;;;;;;5.95;3.15;;;;;;;;;;4988754;28;20422;-68
2023/09/06 05:58:47;;;;;;;5.55;3.38;;;;;;;;;;4990073;28;20429;-66
2023/09/06 06:01:17;;;;;;;5.28;3.20;;;;;;;;;;4994073;28;20463;-66
2023/09/06 06:03:44;;;;;;;4.20;2.75;;;;;;;;;;4992964;28;20426;-66
2023/09/06 06:06:14;;;;;;;5.32;3.72;;;;;;;;;;4994342;28;20417;-68
2023/09/06 06:08:42;;;;;;;5.50;3.40;;;;;;;;;;4991601;28;20442;-68
2023/09/06 06:11:11;;;;;;;5.43;3.22;;;;;;;;;;4989798;28;21196;-68
2023/09/06 06:13:38;;;;;;;3.88;3.20;;;;;;;;;;4991337;28;20916;-67
2023/09/06 06:16:06;;;;;;;4.07;3.40;;;;;;;;;;4990990;28;20492;-67
2023/09/06 06:18:35;;;;;;;4.88;3.63;;;;;;;;;;4992815;28;20893;-68
2023/09/06 06:21:03;;;;;;;4.38;3.50;;;;;;;;;;4997257;28;20437;-67
2023/09/06 06:23:30;;;;;;;5.10;3.33;;;;;;;;;;4993969;28;20426;-68
2023/09/06 06:25:57;;;;;;;3.85;3.20;;;;;;;;;;4993005;28;20954;-68
2023/09/06 06:28:24;;;;;;;7.10;3.42;;;;;;;;;;4993924;28;20425;-68
2023/09/06 06:30:51;;;;;;;4.70;3.43;;;;;;;;;;4996668;28;20760;-67
2023/09/06 06:33:18;;;;;;;4.03;3.03;;;;;;;;;;4993528;28;20473;-68
2023/09/06 06:35:51;;;;;;;5.00;3.40;;;;;;;;;;4995754;28;20931;-69
2023/09/06 06:38:18;;;;;;;4.80;3.28;;;;;;;;;;4990445;28;20421;-65
2023/09/06 06:43:44;;;;;;;3.78;2.70;;;;;;;;;;5002341;28;20418;-64
2023/09/06 06:46:24;;;;;;;6.72;3.00;;;;;;;;;;5025010;28;20419;-64
2023/09/06 06:48:51;;;;;;;4.60;3.00;;;;;;;;;;5040357;28;20409;-63
2023/09/06 06:51:19;;;;;;;5.60;3.03;;;;;;;;;;5023850;28;20417;-63
2023/09/06 06:53:46;;;;;;;4.72;3.20;;;;;;;;;;5035419;28;20482;-63
2023/09/06 06:56:14;;;;;;;6.90;3.30;;;;;;;;;;5031192;28;20476;-65
2023/09/06 06:58:41;;;;;;;5.70;3.28;;;;;;;;;;5022965;28;20413;-65
2023/09/06 07:01:08;;;;;;;5.83;3.10;;;;;;;;;;5024184;28;20441;-65
2023/09/06 07:03:35;;;;;;;5.35;3.10;;;;;;;;;;5012483;28;20408;-66
2023/09/06 07:06:02;;;;;;;5.43;3.53;;;;;;;;;;5019668;28;21012;-65
2023/09/06 07:08:30;;;;;;;5.78;3.22;;;;;;;;;;5021850;28;20415;-66
2023/09/06 07:10:59;;;;;;;5.50;3.42;;;;;;;;;;5020491;28;20461;-65
2023/09/06 07:13:26;;;;;;;6.88;3.40;;;;;;;;;;5014249;28;20416;-66
2023/09/06 07:15:53;;;;;;;6.68;3.10;;;;;;;;;;5023464;28;20534;-66
2023/09/06 07:18:20;;;;;;;5.43;3.20;;;;;;;;;;5025413;28;20443;-66
2023/09/06 07:20:47;;;;;;;4.93;3.05;;;;;;;;;;5017209;28;20830;-65
2023/09/06 07:23:15;;;;;;;4.38;2.80;;;;;;;;;;5025646;28;20509;-66
2023/09/06 07:25:46;;;;;;;4.88;3.05;;;;;;;;;;5018764;28;20417;-66
2023/09/06 07:28:13;;;;;;;5.55;2.97;;;;;;;;;;5027688;28;20414;-66
2023/09/06 07:30:40;;;;;;;4.45;2.78;;;;;;;;;;5020704;28;20834;-66
2023/09/06 07:33:43;;;;;;;5.90;3.08;;;;;;;;;;5018148;28;20436;-66
2023/09/06 07:36:11;;;;;;;4.15;2.80;;;;;;;;;;5021715;28;20809;-64
2023/09/06 07:38:38;;;;;;;6.40;3.30;;;;;;;;;;5016641;28;20894;-64
2023/09/06 07:41:07;;;;;;;5.43;3.10;;;;;;;;;;5012074;28;20890;-64
2023/09/06 07:43:35;;;;;;;7.53;3.15;;;;;;;;;;5019001;28;20417;-64
2023/09/06 07:46:02;;;;;;;3.92;3.15;;;;;;;;;;5025551;28;20837;-65
2023/09/06 07:48:30;;;;;;;4.22;2.85;;;;;;;;;;5018977;28;20420;-65
2023/09/06 07:50:58;;;;;;;6.43;3.03;;;;;;;;;;5010345;28;20412;-65
2023/09/06 07:53:25;;;;;;;5.30;3.15;;;;;;;;;;5014821;28;20487;-64
2023/09/06 07:55:52;;;;;;;4.95;3.08;;;;;;;;;;5018156;28;20433;-64
2023/09/06 07:58:21;;;;;;;4.35;3.00;;;;;;;;;;5023262;28;20415;-64
2023/09/06 08:00:48;;;;;;;5.60;2.78;;;;;;;;;;5025015;28;20436;-64
2023/09/06 08:03:15;;;;;;;6.63;2.97;;;;;;;;;;5028004;28;20414;-64
2023/09/06 08:05:43;;;;;;;5.05;3.15;;;;;;;;;;5023393;28;20475;-67
2023/09/06 08:08:11;;;;;;;4.70;3.10;;;;;;;;;;5033545;28;20419;-66
2023/09/06 08:10:38;;;;;;;5.35;3.13;;;;;;;;;;5024005;28;20416;-66
2023/09/06 08:13:06;;;;;;;6.87;3.03;;;;;;;;;;5034904;28;20417;-69
2023/09/06 08:15:35;;;;;;;5.28;2.90;;;;;;;;;;5026634;28;20419;-65
2023/09/06 08:18:03;;;;;;;5.20;3.22;;;;;;;;;;5031825;28;20504;-66
2023/09/06 08:20:30;;;;;;;5.28;2.83;;;;;;;;;;5027209;28;20429;-66
2023/09/06 08:22:57;;;;;;;3.88;3.05;;;;;;;;;;5035467;28;20459;-67
2023/09/06 08:25:24;;;;;;;5.05;3.20;;;;;;;;;;5030197;28;20534;-66
2023/09/06 08:27:51;;;;;;;5.50;3.00;;;;;;;;;;5031589;28;20535;-66
2023/09/06 08:30:19;;;;;;;5.55;3.00;;;;;;;;;;5032606;28;20493;-66
2023/09/06 08:32:49;;;;;;;5.18;3.38;;;;;;;;;;5031605;28;20802;-68
2023/09/06 08:35:17;;;;;;;5.20;3.08;;;;;;;;;;5029744;28;20463;-67
2023/09/06 08:37:45;;;;;;;6.20;3.58;;;;;;;;;;5031579;28;20420;-66
2023/09/06 08:40:13;;;;;;;4.03;3.20;;;;;;;;;;5030994;28;20429;-70
2023/09/06 08:42:40;;;;;;;5.90;3.13;;;;;;;;;;5037605;28;20420;-68
2023/09/06 08:45:08;;;;;;;4.47;3.30;;;;;;;;;;5032893;28;20759;-68
2023/09/06 08:47:37;;;;;;;4.85;3.33;;;;;;;;;;5035858;28;20516;-65
2023/09/06 08:50:09;;;;;;;5.05;3.60;;;;;;;;;;5035316;28;20897;-65
2023/09/06 08:52:36;;;;;;;4.40;3.43;;;;;;;;;;5030459;28;20475;-66
2023/09/06 08:55:22;;;;;;;3.80;3.25;;;;;;;;;;5037190;28;21300;-72
2023/09/06 08:57:50;;;;;;;4.40;3.10;;;;;;;;;;5024473;28;20424;-67
2023/09/06 09:00:17;;;;;;;6.60;3.40;;;;;;;;;;5029736;28;20464;-63
2023/09/06 09:02:46;;;;;;;5.25;3.40;;;;;;;;;;5025047;28;20898;-62
2023/09/06 09:05:15;;;;;;;6.00;3.50;;;;;;;;;;5042791;28;20415;-62
2023/09/06 09:07:42;;;;;;;5.75;3.40;;;;;;;;;;5025543;28;20926;-64
2023/09/06 09:10:10;;;;;;;6.45;3.45;;;;;;;;;;5031727;28;20417;-65
2023/09/06 09:12:38;;;;;;;11.10;3.55;;;;;;;;;;5025323;28;20463;-65
2023/09/06 09:15:06;;;;;;;6.65;3.75;;;;;;;;;;5037039;28;20853;-66
2023/09/06 09:17:37;;;;;;;4.57;3.40;;;;;;;;;;5024151;28;20428;-64
2023/09/06 09:20:05;;;;;;;3.78;3.10;;;;;;;;;;5029751;28;20429;-64
2023/09/06 09:22:35;;;;;;;5.95;3.53;;;;;;;;;;5023292;28;20874;-64
2023/09/06 09:25:04;;;;;;;5.33;3.60;;;;;;;;;;5029207;28;20409;-64
2023/09/06 09:27:31;;;;;;;6.57;3.42;;;;;;;;;;5022713;28;20937;-63
2023/09/06 09:30:00;;;;;;;5.32;3.40;;;;;;;;;;5033231;28;20955;-62
2023/09/06 09:32:27;;;;;;;4.83;3.53;;;;;;;;;;5020795;28;20821;-64
2023/09/06 09:34:54;;;;;;;5.60;3.50;;;;;;;;;;5034524;28;20495;-61
2023/09/06 09:37:21;;;;;;;4.53;3.50;;;;;;;;;;5029620;28;20432;-61
2023/09/06 09:39:52;;;;;;;5.45;3.78;;;;;;;;;;5038825;28;20467;-64
2023/09/06 09:42:19;;;;;;;5.10;3.60;;;;;;;;;;5028450;28;20456;-64
2023/09/06 09:45:00;;;;;;;5.45;3.60;;;;;;;;;;5031780;28;20444;-64
2023/09/06 09:47:29;;;;;;;5.05;3.55;;;;;;;;;;5027659;28;20423;-64
2023/09/06 09:49:56;;;;;;;6.38;3.60;;;;;;;;;;5031448;28;20915;-64
2023/09/06 09:52:26;;;;;;;6.40;3.45;;;;;;;;;;5027767;28;20466;-64
2023/09/06 09:54:54;;;;;;;4.63;3.60;;;;;;;;;;5030087;28;20412;-64
2023/09/06 09:57:23;;;;;;;5.38;3.40;;;;;;;;;;5026833;28;20415;-64
2023/09/06 09:59:51;;;;;;;4.97;3.23;;;;;;;;;;5030067;28;20485;-64
2023/09/06 10:02:19;;;;;;;3.97;3.22;;;;;;;;;;5023437;28;20901;-66
2023/09/06 10:04:46;;;;;;;5.73;3.50;;;;;;;;;;5028407;28;20417;-66
2023/09/06 10:07:15;;;;;;;4.93;3.63;;;;;;;;;;5032804;28;20448;-65
2023/09/06 10:09:43;;;;;;;5.22;3.40;;;;;;;;;;5027689;28;20416;-64
2023/09/06 10:12:12;;;;;;;5.23;3.43;;;;;;;;;;5032229;28;20500;-62
2023/09/06 10:14:40;;;;;;;4.80;3.53;;;;;;;;;;5032068;28;20763;-62
2023/09/06 10:17:08;;;;;;;5.60;3.87;;;;;;;;;;5037272;28;20827;-62
2023/09/06 10:19:35;;;;;;;6.40;3.63;;;;;;;;;;5025519;28;20448;-62
2023/09/06 10:22:03;;;;;;;5.72;3.60;;;;;;;;;;5025456;28;20467;-64
2023/09/06 10:24:33;;;;;;;6.10;3.70;;;;;;;;;;5026219;28;20472;-64
2023/09/06 10:27:00;;;;;;;6.60;4.00;;;;;;;;;;5032825;28;20420;-63
2023/09/06 10:29:30;;;;;;;7.85;3.92;;;;;;;;;;5028351;28;20418;-65
2023/09/06 10:32:01;;;;;;;6.22;4.90;;;;;;;;;;5026946;28;20415;-66
2023/09/06 10:34:31;;;;;;;13.73;6.57;;;;;;;;;;5023001;28;20795;-66
2023/09/06 10:37:00;;;;;;;5.15;3.97;;;;;;;;;;5034849;28;20413;-66
2023/09/06 10:39:28;;;;;;;5.38;4.10;;;;;;;;;;5028858;28;20934;-66
2023/09/06 10:42:25;;;;;;;5.78;3.80;;;;;;;;;;5033756;28;20946;-66
2023/09/06 10:45:11;;;;;;;8.13;5.40;;;;;;;;;;5020221;28;20420;-67
2023/09/06 10:48:10;;;;;;;6.93;4.05;;;;;;;;;;5023319;28;20462;-67
2023/09/06 10:50:37;;;;;;;6.05;4.47;;;;;;;;;;5024122;28;20442;-66
2023/09/06 10:53:05;;;;;;;6.20;4.10;;;;;;;;;;5024743;28;20671;-66
2023/09/06 10:55:46;;;;;;;5.55;4.00;;;;;;;;;;5045267;28;20415;-68
2023/09/06 10:58:13;;;;;;;5.47;3.63;;;;;;;;;;5024483;28;20411;-66
2023/09/06 11:00:42;;;;;;;5.72;3.83;;;;;;;;;;5027675;28;20435;-67
2023/09/06 11:03:30;;;;;;;5.72;3.47;;;;;;;;;;5023877;28;20473;-67
2023/09/06 11:05:59;;;;;;;4.97;3.70;;;;;;;;;;5038546;28;20419;-67
2023/09/06 11:08:29;;;;;;;3.80;3.25;;;;;;;;;;5022053;28;20423;-67
2023/09/06 11:11:00;;;;;;;5.53;3.90;;;;;;;;;;5033568;28;20556;-67
2023/09/06 11:13:30;;;;;;;5.30;3.80;;;;;;;;;;5021913;28;20428;-67
2023/09/06 11:15:57;;;;;;;8.70;3.60;;;;;;;;;;5032177;28;20428;-66
2023/09/06 11:18:24;;;;;;;7.40;3.60;;;;;;;;;;5020661;28;20415;-67
2023/09/06 11:20:51;;;;;;;6.40;3.60;;;;;;;;;;5028882;28;20439;-67
2023/09/06 11:23:20;;;;;;;6.95;3.38;;;;;;;;;;5025963;28;21042;-67
2023/09/06 11:25:47;;;;;;;5.43;3.70;;;;;;;;;;5030248;28;20448;-67
2023/09/06 11:28:18;;;;;;;6.20;3.40;;;;;;;;;;5025980;28;20437;-66
2023/09/06 11:30:47;;;;;;;5.57;3.47;;;;;;;;;;5027951;28;20501;-68
2023/09/06 11:33:15;;;;;;;4.55;3.10;;;;;;;;;;5024820;28;20883;-68
2023/09/06 11:35:48;;;;;;;6.15;3.55;;;;;;;;;;5027630;28;20417;-67
2023/09/06 11:38:17;;;;;;;3.72;3.22;;;;;;;;;;5031896;28;20417;-68
2023/09/06 11:40:46;;;;;;;5.63;3.15;;;;;;;;;;5027121;28;20935;-67
2023/09/06 11:43:15;;;;;;;5.78;3.30;;;;;;;;;;5024681;28;20459;-68
2023/09/06 11:45:48;;;;;;;3.88;3.05;;;;;;;;;;5025952;28;20421;-67
2023/09/06 11:48:19;;;;;;;5.53;3.47;;;;;;;;;;5031707;28;20421;-68
2023/09/06 11:50:50;;;;;;;5.25;3.22;;;;;;;;;;5077898;22;20458;-67
2023/09/06 11:53:17;;;;;;;4.65;3.30;;;;;;;;;;5011591;28;20465;-66
2023/09/06 11:55:49;;;;;;;5.82;3.30;;;;;;;;;;5005375;28;20472;-67
2023/09/06 11:58:16;;;;;;;4.90;3.30;;;;;;;;;;5013857;28;20506;-68
2023/09/06 12:00:45;;;;;;;3.95;3.10;;;;;;;;;;5008553;28;20418;-68
2023/09/06 12:03:13;;;;;;;4.97;3.17;;;;;;;;;;5010077;28;20834;-67
2023/09/06 12:05:42;;;;;;;3.67;3.25;;;;;;;;;;5006728;28;20840;-68
2023/09/06 12:08:09;;;;;;;4.65;3.08;;;;;;;;;;5013025;28;20422;-67
2023/09/06 12:10:38;;;;;;;5.77;3.13;;;;;;;;;;5009697;28;20902;-66
2023/09/06 12:13:07;;;;;;;5.35;3.17;;;;;;;;;;5005783;28;20415;-66
2023/09/06 12:15:34;;;;;;;6.43;2.97;;;;;;;;;;5008915;28;20422;-67
2023/09/06 12:18:04;;;;;;;4.63;3.05;;;;;;;;;;5021933;28;20904;-67
2023/09/06 12:20:34;;;;;;;3.47;3.13;;;;;;;;;;5014909;28;20432;-66
2023/09/06 12:23:01;;;;;;;4.25;3.08;;;;;;;;;;5017575;28;20422;-69
2023/09/06 12:25:28;;;;;;;3.38;2.80;;;;;;;;;;5009777;28;20416;-68
2023/09/06 12:27:55;;;;;;;4.00;2.88;;;;;;;;;;5018225;28;20422;-68
2023/09/06 12:30:24;;;;;;;4.40;3.30;;;;;;;;;;5008324;28;20561;-67
2023/09/06 12:32:51;;;;;;;4.28;3.00;;;;;;;;;;5008610;28;20473;-66
2023/09/06 12:35:18;;;;;;;4.93;2.97;;;;;;;;;;5004121;28;20459;-67
2023/09/06 12:37:45;;;;;;;3.30;2.75;;;;;;;;;;5011817;28;20562;-66
2023/09/06 12:45:27;;;;;;;5.05;2.83;;;;;;;;;;4806142;26;20431;-65
2023/09/06 12:47:54;;;;;;;4.28;2.80;;;;;;;;;;5011730;28;21040;-67
2023/09/06 12:50:21;;;;;;;3.65;2.92;;;;;;;;;;5008183;28;20537;-66
2023/09/06 12:52:48;;;;;;;3.10;2.80;;;;;;;;;;5011008;28;20414;-66
2023/09/06 12:55:16;;;;;;;6.25;3.25;;;;;;;;;;5007757;28;20403;-66
2023/09/06 12:57:43;;;;;;;3.25;2.72;;;;;;;;;;5009234;28;20419;-66
2023/09/06 13:00:11;;;;;;;5.13;3.28;;;;;;;;;;5011788;28;20419;-66
2023/09/06 13:02:40;;;;;;;4.53;2.92;;;;;;;;;;5008668;28;20883;-66
2023/09/06 13:05:08;;;;;;;2.93;2.60;;;;;;;;;;5012195;28;20465;-67
2023/09/06 13:07:35;;;;;;;3.50;2.93;;;;;;;;;;5007918;28;20451;-66
2023/09/06 13:10:03;;;;;;;3.42;2.78;;;;;;;;;;5012789;28;20415;-66
2023/09/06 13:12:30;;;;;;;3.38;2.60;;;;;;;;;;5008455;28;20879;-66
2023/09/06 13:14:57;;;;;;;3.83;2.83;;;;;;;;;;5010582;28;20419;-66
2023/09/06 13:17:25;;;;;;;4.35;2.92;;;;;;;;;;5007940;28;20895;-66
2023/09/06 13:19:54;;;;;;;5.40;3.10;;;;;;;;;;5008877;28;20425;-66
2023/09/06 13:22:21;;;;;;;3.67;2.72;;;;;;;;;;5008263;28;20791;-67
2023/09/06 13:24:49;;;;;;;4.82;3.05;;;;;;;;;;5005596;28;20413;-68
2023/09/06 13:27:16;;;;;;;5.50;3.15;;;;;;;;;;5007182;28;20424;-67
2023/09/06 13:29:43;;;;;;;4.03;3.03;;;;;;;;;;5015054;28;20415;-67
2023/09/06 13:32:10;;;;;;;5.67;3.03;;;;;;;;;;5009019;28;20408;-68
2023/09/06 13:34:37;;;;;;;4.77;3.03;;;;;;;;;;5010943;28;20492;-68
2023/09/06 13:37:06;;;;;;;4.60;3.00;;;;;;;;;;5008616;28;20978;-68
2023/09/06 13:39:33;;;;;;;4.53;3.00;;;;;;;;;;5011751;28;20425;-68
2023/09/06 13:42:01;;;;;;;4.40;2.90;;;;;;;;;;5006975;28;20434;-68
2023/09/06 13:44:31;;;;;;;5.13;3.15;;;;;;;;;;5010288;28;20503;-68
2023/09/06 13:46:59;;;;;;;4.82;3.00;;;;;;;;;;5005413;28;20944;-67
2023/09/06 13:49:26;;;;;;;5.60;3.15;;;;;;;;;;5017317;28;20456;-67
2023/09/06 13:51:53;;;;;;;3.70;3.00;;;;;;;;;;5012806;28;20406;-68
2023/09/06 13:54:21;;;;;;;4.05;3.10;;;;;;;;;;5018940;28;20431;-66
2023/09/06 13:56:49;;;;;;;4.00;2.90;;;;;;;;;;5015373;28;20414;-68
2023/09/06 13:59:16;;;;;;;7.07;3.15;;;;;;;;;;5016970;28;20501;-68
2023/09/06 14:01:43;;;;;;;5.13;3.13;;;;;;;;;;5006530;28;20484;-66
2023/09/06 14:04:10;;;;;;;5.40;3.25;;;;;;;;;;5015924;28;20423;-68
2023/09/06 14:06:38;;;;;;;3.45;2.53;;;;;;;;;;5002406;28;20970;-70
2023/09/06 14:09:07;;;;;;;4.10;2.88;;;;;;;;;;5014478;28;20411;-66
2023/09/06 14:11:35;;;;;;;4.88;2.95;;;;;;;;;;5002108;28;20785;-67
2023/09/06 14:14:04;;;;;;;3.35;2.83;;;;;;;;;;5012651;28;20422;-67
2023/09/06 14:16:31;;;;;;;6.15;3.08;;;;;;;;;;5001550;28;20426;-66
2023/09/06 14:18:59;;;;;;;3.83;2.85;;;;;;;;;;5009614;28;20512;-66
2023/09/06 14:21:26;;;;;;;3.25;2.95;;;;;;;;;;5011069;28;20423;-68
2023/09/06 14:23:53;;;;;;;3.47;2.78;;;;;;;;;;5012778;28;20421;-66
2023/09/06 14:26:20;;;;;;;4.63;2.83;;;;;;;;;;5006522;28;20418;-68
2023/09/06 14:28:49;;;;;;;4.20;2.50;;;;;;;;;;5009262;28;20419;-67
2023/09/06 14:31:16;;;;;;;4.95;2.90;;;;;;;;;;5013346;28;20438;-65
2023/09/06 14:33:43;;;;;;;4.50;2.92;;;;;;;;;;5008015;28;20428;-66
2023/09/06 14:36:10;;;;;;;5.22;2.80;;;;;;;;;;5004885;28;20411;-66
2023/09/06 14:38:37;;;;;;;4.60;2.47;;;;;;;;;;5008595;28;20426;-66
2023/09/06 14:41:04;;;;;;;3.90;2.60;;;;;;;;;;5005315;28;20425;-66
2023/09/06 14:43:32;;;;;;;4.45;2.80;;;;;;;;;;5005910;28;20841;-67
2023/09/06 14:46:04;;;;;;;3.87;2.57;;;;;;;;;;5009645;28;20453;-67
2023/09/06 14:48:31;;;;;;;2.90;2.50;;;;;;;;;;5005957;28;20748;-67
2023/09/06 14:50:59;;;;;;;3.58;2.40;;;;;;;;;;5009122;28;20418;-67
2023/09/06 14:53:26;;;;;;;4.38;2.80;;;;;;;;;;5007941;28;20843;-67
2023/09/06 14:55:53;;;;;;;3.70;3.00;;;;;;;;;;5006919;28;20412;-67
2023/09/06 14:58:20;;;;;;;5.33;3.10;;;;;;;;;;5008899;28;20421;-66